createdAt,value
2019-03-18T00:00:33.785Z,99423.00
2019-03-18T00:03:05.394Z,99430.00
2019-03-18T00:05:36.972Z,99425.00
2019-03-18T00:08:08.471Z,99437.00
2019-03-18T00:10:40.282Z,99444.00
2019-03-18T00:13:11.716Z,99431.00
2019-03-18T00:15:43.121Z,99453.00
2019-03-18T00:18:14.547Z,99441.00
2019-03-18T00:20:45.962Z,99439.00
2019-03-18T00:23:17.423Z,99435.00
2019-03-18T00:25:48.844Z,99445.00
2019-03-18T00:28:20.257Z,99440.00
2019-03-18T00:30:51.682Z,99440.00
2019-03-18T00:33:23.145Z,99432.00
2019-03-18T00:35:54.569Z,99450.00
2019-03-18T00:38:26.005Z,99436.00
2019-03-18T00:40:57.449Z,99440.00
2019-03-18T00:43:28.925Z,99448.00
2019-03-18T00:46:00.397Z,99437.00
2019-03-18T00:48:31.813Z,99439.00
2019-03-18T00:51:03.244Z,99432.00
2019-03-18T00:53:34.642Z,99435.00
2019-03-18T00:56:06.170Z,99431.00
2019-03-18T00:58:37.627Z,99431.00
2019-03-18T01:01:09.106Z,99444.00
2019-03-18T01:03:40.465Z,99437.00
2019-03-18T01:06:11.895Z,99435.00
2019-03-18T01:08:43.338Z,99434.00
2019-03-18T01:11:14.857Z,99449.00
2019-03-18T01:13:46.297Z,99449.00
2019-03-18T01:16:17.729Z,99451.00
2019-03-18T01:18:49.146Z,99460.00
2019-03-18T01:21:20.571Z,99459.00
2019-03-18T01:23:51.958Z,99456.00
2019-03-18T01:26:23.379Z,99463.00
2019-03-18T01:28:54.774Z,99478.00
2019-03-18T01:31:26.215Z,99457.00
2019-03-18T01:33:57.641Z,99459.00
2019-03-18T01:36:29.285Z,99455.00
2019-03-18T01:39:00.740Z,99447.00
2019-03-18T01:41:33.975Z,99449.00
2019-03-18T01:44:05.393Z,99452.00
2019-03-18T01:46:36.934Z,99446.00
2019-03-18T01:49:08.337Z,99435.00
2019-03-18T01:52:03.933Z,99451.00
2019-03-18T01:54:38.623Z,99466.00
2019-03-18T01:58:05.933Z,99472.00
2019-03-18T02:00:41.960Z,99480.00
2019-03-18T02:03:15.564Z,99487.00
2019-03-18T02:05:46.958Z,99492.00
2019-03-18T02:08:18.413Z,99496.00
2019-03-18T02:10:50.952Z,99491.00
2019-03-18T02:13:22.373Z,99478.00
2019-03-18T02:15:54.063Z,99480.00
2019-03-18T02:18:25.495Z,99471.00
2019-03-18T02:20:56.866Z,99470.00
2019-03-18T02:23:29.375Z,99484.00
2019-03-18T02:26:00.748Z,99472.00
2019-03-18T02:28:32.165Z,99468.00
2019-03-18T02:31:03.573Z,99492.00
2019-03-18T02:33:35.031Z,99482.00
2019-03-18T02:36:06.442Z,99477.00
2019-03-18T02:38:37.864Z,99480.00
2019-03-18T02:41:09.243Z,99478.00
2019-03-18T02:43:40.727Z,99468.00
2019-03-18T02:46:12.165Z,99466.00
2019-03-18T02:48:43.552Z,99459.00
2019-03-18T02:51:14.923Z,99460.00
2019-03-18T02:53:46.331Z,99461.00
2019-03-18T02:56:17.696Z,99456.00
2019-03-18T02:58:49.102Z,99459.00
2019-03-18T03:01:20.485Z,99468.00
2019-03-18T03:03:51.896Z,99493.00
2019-03-18T03:06:23.394Z,99466.00
2019-03-18T03:08:54.942Z,99497.00
2019-03-18T03:11:26.281Z,99477.00
2019-03-18T03:13:57.679Z,99480.00
2019-03-18T03:16:29.076Z,99478.00
2019-03-18T03:19:00.468Z,99483.00
2019-03-18T03:21:31.834Z,99498.00
2019-03-18T03:24:03.285Z,99494.00
2019-03-18T03:26:34.717Z,99498.00
2019-03-18T03:29:06.111Z,99507.00
2019-03-18T03:31:37.513Z,99498.00
2019-03-18T03:34:13.231Z,99512.00
2019-03-18T03:36:42.131Z,99521.00
2019-03-18T03:39:13.536Z,99527.00
2019-03-18T03:41:44.931Z,99532.00
2019-03-18T03:44:16.338Z,99509.00
2019-03-18T03:46:47.721Z,99525.00
2019-03-18T03:49:19.135Z,99538.00
2019-03-18T03:51:50.508Z,99533.00
2019-03-18T03:54:21.913Z,99521.00
2019-03-18T03:56:53.580Z,99524.00
2019-03-18T03:59:25.577Z,99516.00
2019-03-18T04:01:56.939Z,99522.00
2019-03-18T04:04:28.330Z,99545.00
2019-03-18T04:06:59.722Z,99542.00
2019-03-18T04:09:31.115Z,99548.00
2019-03-18T04:12:02.513Z,99543.00
2019-03-18T04:14:33.932Z,99549.00
2019-03-18T04:17:05.289Z,99551.00
2019-03-18T04:19:36.790Z,99542.00
2019-03-18T04:22:08.143Z,99547.00
2019-03-18T04:24:39.564Z,99552.00
2019-03-18T04:27:10.938Z,99542.00
2019-03-18T04:29:42.349Z,99553.00
2019-03-18T04:32:13.850Z,99549.00
2019-03-18T04:34:45.236Z,99548.00
2019-03-18T04:37:16.620Z,99554.00
2019-03-18T04:39:49.105Z,99549.00
2019-03-18T04:42:20.509Z,99551.00
2019-03-18T04:44:51.910Z,99547.00
2019-03-18T04:47:23.310Z,99554.00
2019-03-18T04:49:54.732Z,99552.00
2019-03-18T04:52:26.108Z,99549.00
2019-03-18T04:54:57.514Z,99552.00
2019-03-18T04:57:28.894Z,99564.00
2019-03-18T05:00:00.431Z,99566.00
2019-03-18T05:02:31.748Z,99580.00
2019-03-18T05:05:03.157Z,99581.00
2019-03-18T05:07:34.522Z,99583.00
2019-03-18T05:10:06.348Z,99582.00
2019-03-18T05:12:37.806Z,99597.00
2019-03-18T05:15:09.716Z,99602.00
2019-03-18T05:17:42.053Z,99602.00
2019-03-18T05:20:13.572Z,99611.00
2019-03-18T05:22:45.078Z,99626.00
2019-03-18T05:25:16.620Z,99614.00
2019-03-18T05:27:48.138Z,99619.00
2019-03-18T05:30:19.568Z,99610.00
2019-03-18T05:32:50.959Z,99618.00
2019-03-18T05:35:22.471Z,99607.00
2019-03-18T05:37:53.927Z,99627.00
2019-03-18T05:40:25.346Z,99624.00
2019-03-18T05:42:56.735Z,99624.00
2019-03-18T05:45:28.196Z,99624.00
2019-03-18T05:47:59.596Z,99633.00
2019-03-18T05:50:31.111Z,99635.00
2019-03-18T05:53:02.586Z,99638.00
2019-03-18T05:55:34.057Z,99630.00
2019-03-18T05:58:05.462Z,99635.00
2019-03-18T06:00:36.871Z,99639.00
2019-03-18T06:03:08.422Z,99656.00
2019-03-18T06:05:39.888Z,99649.00
2019-03-18T06:08:11.780Z,99659.00
2019-03-18T06:10:43.348Z,99649.00
2019-03-18T06:13:14.706Z,99655.00
2019-03-18T06:15:47.272Z,99656.00
2019-03-18T06:18:19.681Z,99667.00
2019-03-18T06:20:51.110Z,99663.00
2019-03-18T06:23:22.513Z,99676.00
2019-03-18T06:25:53.933Z,99675.00
2019-03-18T06:28:25.347Z,99660.00
2019-03-18T06:30:56.784Z,99669.00
2019-03-18T06:33:29.714Z,99685.00
2019-03-18T06:36:01.181Z,99690.00
2019-03-18T06:38:32.598Z,99673.00
2019-03-18T06:41:04.011Z,99689.00
2019-03-18T06:43:35.409Z,99693.00
2019-03-18T06:46:06.900Z,99689.00
2019-03-18T06:48:38.355Z,99709.00
2019-03-18T06:51:09.847Z,99712.00
2019-03-18T06:53:41.263Z,99698.00
2019-03-18T06:56:12.703Z,99713.00
2019-03-18T06:58:44.091Z,99720.00
2019-03-18T07:01:15.539Z,99718.00
2019-03-18T07:03:46.972Z,99713.00
2019-03-18T07:06:18.604Z,99707.00
2019-03-18T07:08:50.003Z,99712.00
2019-03-18T07:11:21.418Z,99722.00
2019-03-18T07:13:52.795Z,99735.00
2019-03-18T07:16:24.451Z,99714.00
2019-03-18T07:18:55.863Z,99731.00
2019-03-18T07:21:27.387Z,99744.00
2019-03-18T07:23:58.777Z,99753.00
2019-03-18T07:26:30.229Z,99773.00
2019-03-18T07:29:01.717Z,99764.00
2019-03-18T07:31:33.134Z,99761.00
2019-03-18T07:34:04.535Z,99765.00
2019-03-18T07:36:35.948Z,99772.00
2019-03-18T07:39:08.309Z,99767.00
2019-03-18T07:41:39.761Z,99776.00
2019-03-18T07:44:11.157Z,99775.00
2019-03-18T07:46:42.558Z,99783.00
2019-03-18T07:49:14.049Z,99781.00
2019-03-18T07:51:51.710Z,99778.00
2019-03-18T07:54:32.240Z,99776.00
2019-03-18T07:56:56.233Z,99774.00
2019-03-18T07:59:27.798Z,99784.00
2019-03-18T08:01:59.220Z,99770.00
2019-03-18T08:04:37.355Z,99786.00
2019-03-18T08:07:03.870Z,99790.00
2019-03-18T08:09:35.473Z,99800.00
2019-03-18T08:12:06.879Z,99823.00
2019-03-18T08:14:38.295Z,99804.00
2019-03-18T08:17:09.777Z,99819.00
2019-03-18T08:19:41.160Z,99809.00
2019-03-18T08:22:12.654Z,99830.00
2019-03-18T08:24:44.167Z,99826.00
2019-03-18T08:27:15.623Z,99824.00
2019-03-18T08:29:47.031Z,99838.00
2019-03-18T08:32:18.514Z,99858.00
2019-03-18T08:34:50.006Z,99833.00
2019-03-18T08:37:21.622Z,99839.00
2019-03-18T08:39:53.039Z,99832.00
2019-03-18T08:42:24.633Z,99859.00
2019-03-18T08:44:56.162Z,99859.00
2019-03-18T08:47:27.625Z,99864.00
2019-03-18T08:49:59.124Z,99860.00
2019-03-18T08:52:30.652Z,99876.00
2019-03-18T08:55:02.312Z,99870.00
2019-03-18T08:57:33.837Z,99878.00
2019-03-18T09:00:06.446Z,99869.00
2019-03-18T09:02:37.974Z,99866.00
2019-03-18T09:05:09.912Z,99879.00
2019-03-18T09:07:41.434Z,99874.00
2019-03-18T09:10:13.412Z,99867.00
2019-03-18T09:12:46.015Z,99862.00
2019-03-18T09:15:17.568Z,99889.00
2019-03-18T09:17:49.011Z,99890.00
2019-03-18T09:20:20.618Z,99893.00
2019-03-18T09:22:52.080Z,99938.00
2019-03-18T09:25:23.528Z,99941.00
2019-03-18T09:27:54.938Z,99963.00
2019-03-18T09:30:26.436Z,99968.00
2019-03-18T09:32:57.920Z,99946.00
2019-03-18T09:35:29.433Z,99953.00
2019-03-18T09:38:00.937Z,99954.00
2019-03-18T09:40:32.436Z,99967.00
2019-03-18T09:43:04.038Z,99955.00
2019-03-18T09:45:35.467Z,99945.00
2019-03-18T09:48:06.960Z,99940.00
2019-03-18T09:50:38.372Z,99943.00
2019-03-18T09:53:10.826Z,99961.00
2019-03-18T09:55:42.298Z,99946.00
2019-03-18T09:58:13.798Z,99939.00
2019-03-18T10:00:45.417Z,99948.00
2019-03-18T10:03:17.103Z,99959.00
2019-03-18T10:05:48.547Z,99968.00
2019-03-18T10:08:20.188Z,99958.00
2019-03-18T10:10:51.664Z,99973.00
2019-03-18T10:13:24.215Z,99986.00
2019-03-18T10:15:59.039Z,99964.00
2019-03-18T10:18:30.786Z,99982.00
2019-03-18T10:21:02.326Z,99989.00
2019-03-18T10:23:35.500Z,99978.00
2019-03-18T10:26:07.726Z,99993.00
2019-03-18T10:28:39.370Z,100009.00
2019-03-18T10:31:10.975Z,99985.00
2019-03-18T10:33:44.870Z,99987.00
2019-03-18T10:36:15.768Z,100001.00
2019-03-18T10:38:47.304Z,100020.00
2019-03-18T10:41:18.858Z,99997.00
2019-03-18T10:43:50.364Z,100039.00
2019-03-18T10:46:21.930Z,100028.00
2019-03-18T10:48:53.537Z,100017.00
2019-03-18T10:51:25.074Z,100078.00
2019-03-18T10:53:56.644Z,100091.00
2019-03-18T10:56:28.094Z,100070.00
2019-03-18T10:58:59.720Z,100074.00
2019-03-18T11:01:31.210Z,100068.00
2019-03-18T11:04:02.748Z,100070.00
2019-03-18T11:06:34.230Z,100066.00
2019-03-18T11:09:07.882Z,100067.00
2019-03-18T11:11:39.303Z,100069.00
2019-03-18T11:14:10.873Z,100079.00
2019-03-18T11:16:43.590Z,100073.00
2019-03-18T11:19:16.746Z,100080.00
2019-03-18T11:21:48.192Z,100084.00
2019-03-18T11:24:19.684Z,100080.00
2019-03-18T11:26:51.112Z,100090.00
2019-03-18T11:29:22.662Z,100087.00
2019-03-18T11:31:54.074Z,100103.00
2019-03-18T11:34:26.811Z,100143.00
2019-03-18T11:36:58.217Z,100182.00
2019-03-18T11:39:29.977Z,100178.00
2019-03-18T11:42:01.523Z,100173.00
2019-03-18T11:44:33.196Z,100171.00
2019-03-18T11:47:04.672Z,100171.00
2019-03-18T11:49:39.907Z,100178.00
2019-03-18T11:52:09.331Z,100187.00
2019-03-18T11:54:40.864Z,100187.00
2019-03-18T11:57:12.292Z,100190.00
2019-03-18T11:59:46.637Z,100182.00
2019-03-18T12:02:27.226Z,100170.00
2019-03-18T12:04:51.329Z,100167.00
2019-03-18T12:07:24.455Z,100178.00
2019-03-18T12:09:55.980Z,100164.00
2019-03-18T12:12:27.357Z,100169.00
2019-03-18T12:14:58.849Z,100165.00
2019-03-18T12:17:30.281Z,100155.00
2019-03-18T12:20:03.384Z,100153.00
2019-03-18T12:22:35.732Z,100143.00
2019-03-18T12:25:07.920Z,100138.00
2019-03-18T12:27:39.321Z,100143.00
2019-03-18T12:30:18.444Z,100161.00
2019-03-18T12:32:49.932Z,100153.00
2019-03-18T12:35:21.671Z,100140.00
2019-03-18T12:37:54.348Z,100141.00
2019-03-18T12:40:25.873Z,100149.00
2019-03-18T12:42:57.411Z,100162.00
2019-03-18T12:45:29.004Z,100161.00
2019-03-18T12:48:00.553Z,100190.00
2019-03-18T12:50:49.245Z,100183.00
2019-03-18T12:53:05.411Z,100173.00
2019-03-18T12:55:36.910Z,100176.00
2019-03-18T12:58:08.468Z,100196.00
2019-03-18T13:00:39.980Z,100184.00
2019-03-18T13:03:11.381Z,100204.00
2019-03-18T13:05:43.081Z,100187.00
2019-03-18T13:08:14.513Z,100190.00
2019-03-18T13:10:46.043Z,100214.00
2019-03-18T13:13:17.525Z,100203.00
2019-03-18T13:15:49.047Z,100211.00
2019-03-18T13:18:20.533Z,100201.00
2019-03-18T13:20:52.147Z,100202.00
2019-03-18T13:23:38.032Z,100262.00
2019-03-18T13:26:12.195Z,100209.00
2019-03-18T13:28:43.617Z,100210.00
2019-03-18T13:31:15.042Z,100227.00
2019-03-18T13:33:46.473Z,100224.00
2019-03-18T13:36:17.985Z,100216.00
2019-03-18T13:38:50.711Z,100243.00
2019-03-18T13:41:22.347Z,100254.00
2019-03-18T13:43:53.763Z,100239.00
2019-03-18T13:46:25.214Z,100259.00
2019-03-18T13:48:56.621Z,100250.00
2019-03-18T13:51:28.152Z,100260.00
2019-03-18T13:53:59.895Z,100250.00
2019-03-18T13:56:31.503Z,100258.00
2019-03-18T13:59:03.068Z,100267.00
2019-03-18T14:01:34.771Z,100253.00
2019-03-18T14:04:06.307Z,100282.00
2019-03-18T14:06:37.749Z,100267.00
2019-03-18T14:09:09.842Z,100277.00
2019-03-18T14:11:41.532Z,100287.00
2019-03-18T14:14:13.259Z,100311.00
2019-03-18T14:16:44.750Z,100357.00
2019-03-18T14:19:16.348Z,100339.00
2019-03-18T14:21:47.874Z,100348.00
2019-03-18T14:24:20.817Z,100349.00
2019-03-18T14:26:52.302Z,100350.00
2019-03-18T14:29:23.832Z,100345.00
2019-03-18T14:31:55.463Z,100341.00
2019-03-18T14:34:26.967Z,100335.00
2019-03-18T14:36:58.520Z,100333.00
2019-03-18T14:39:30.078Z,100323.00
2019-03-18T14:42:01.783Z,100330.00
2019-03-18T14:44:33.353Z,100335.00
2019-03-18T14:47:04.912Z,100338.00
2019-03-18T14:49:36.442Z,100338.00
2019-03-18T14:52:08.268Z,100334.00
2019-03-18T14:54:39.841Z,100335.00
2019-03-18T14:57:11.762Z,100341.00
2019-03-18T14:59:43.301Z,100356.00
2019-03-18T15:02:18.246Z,100384.00
2019-03-18T15:04:49.738Z,100392.00
2019-03-18T15:07:21.295Z,100410.00
2019-03-18T15:09:52.760Z,100405.00
2019-03-18T15:12:24.214Z,100395.00
2019-03-18T15:14:55.628Z,100397.00
2019-03-18T15:17:30.390Z,100394.00
2019-03-18T15:20:05.394Z,100401.00
2019-03-18T15:22:36.997Z,100427.00
2019-03-18T15:25:12.804Z,100470.00
2019-03-18T15:27:44.258Z,100470.00
2019-03-18T15:30:19.192Z,100472.00
2019-03-18T15:32:50.750Z,100472.00
2019-03-18T15:35:22.194Z,100459.00
2019-03-18T15:37:53.708Z,100462.00
2019-03-18T15:40:25.223Z,100442.00
2019-03-18T15:42:56.914Z,100448.00
2019-03-18T15:45:28.441Z,100449.00
2019-03-18T15:48:00.065Z,100451.00
2019-03-18T15:50:31.573Z,100459.00
2019-03-18T15:53:03.066Z,100467.00
2019-03-18T15:55:34.628Z,100463.00
2019-03-18T15:58:06.189Z,100482.00
2019-03-18T16:00:37.759Z,100476.00
2019-03-18T16:03:09.244Z,100481.00
2019-03-18T16:05:40.763Z,100494.00
2019-03-18T16:08:12.244Z,100494.00
2019-03-18T16:10:43.762Z,100503.00
2019-03-18T16:13:15.220Z,100510.00
2019-03-18T16:15:46.696Z,100510.00
2019-03-18T16:18:19.249Z,100497.00
2019-03-18T16:20:50.842Z,100521.00
2019-03-18T16:23:22.341Z,100523.00
2019-03-18T16:25:53.972Z,100533.00
2019-03-18T16:28:25.436Z,100521.00
2019-03-18T16:30:56.904Z,100537.00
2019-03-18T16:33:28.323Z,100539.00
2019-03-18T16:35:59.951Z,100534.00
2019-03-18T16:38:32.584Z,100543.00
2019-03-18T16:41:04.148Z,100544.00
2019-03-18T16:43:35.670Z,100550.00
2019-03-18T16:46:08.108Z,100547.00
2019-03-18T16:48:39.654Z,100556.00
2019-03-18T16:51:11.152Z,100549.00
2019-03-18T16:53:42.675Z,100531.00
2019-03-18T16:56:15.187Z,100556.00
2019-03-18T16:58:46.678Z,100547.00
2019-03-18T17:01:18.147Z,100547.00
2019-03-18T17:03:50.584Z,100554.00
2019-03-18T17:06:22.086Z,100554.00
2019-03-18T17:08:53.545Z,100550.00
2019-03-18T17:11:25.137Z,100558.00
2019-03-18T17:13:56.706Z,100570.00
2019-03-18T17:16:28.228Z,100579.00
2019-03-18T17:18:59.802Z,100573.00
2019-03-18T17:21:31.327Z,100576.00
2019-03-18T17:24:03.050Z,100574.00
2019-03-18T17:26:34.524Z,100586.00
2019-03-18T17:29:06.080Z,100588.00
2019-03-18T17:31:37.630Z,100599.00
2019-03-18T17:34:09.226Z,100556.00
2019-03-18T17:36:40.808Z,100603.00
2019-03-18T17:39:14.626Z,100615.00
2019-03-18T17:41:45.637Z,100619.00
2019-03-18T17:44:19.006Z,100623.00
2019-03-18T17:46:53.000Z,100631.00
2019-03-18T17:49:24.574Z,100642.00
2019-03-18T17:51:56.097Z,100642.00
2019-03-18T17:54:27.646Z,100649.00
2019-03-18T17:57:07.319Z,100657.00
2019-03-18T18:02:54.659Z,100675.00
2019-03-18T18:05:26.106Z,100683.00
2019-03-18T18:07:57.612Z,100704.00
2019-03-18T18:10:29.231Z,100702.00
2019-03-18T18:13:01.930Z,100720.00
2019-03-18T18:15:33.421Z,100719.00
2019-03-18T18:18:18.285Z,100715.00
2019-03-18T18:20:49.814Z,100717.00
2019-03-18T18:23:21.361Z,100709.00
2019-03-18T18:25:52.916Z,100726.00
2019-03-18T18:28:24.301Z,100730.00
2019-03-18T18:30:55.749Z,100726.00
2019-03-18T18:33:27.350Z,100736.00
2019-03-18T18:35:58.931Z,100744.00
2019-03-18T18:38:30.515Z,100738.00
2019-03-18T18:41:02.025Z,100744.00
2019-03-18T18:43:33.582Z,100745.00
2019-03-18T18:46:06.152Z,100753.00
2019-03-18T18:48:37.699Z,100754.00
2019-03-18T18:51:09.272Z,100761.00
2019-03-18T18:53:41.001Z,100766.00
2019-03-18T18:56:12.554Z,100778.00
2019-03-18T18:58:44.401Z,100778.00
2019-03-18T19:01:15.910Z,100791.00
2019-03-18T19:03:47.406Z,100788.00
2019-03-18T19:06:19.322Z,100791.00
2019-03-18T19:08:50.924Z,100798.00
2019-03-18T19:11:22.489Z,100798.00
2019-03-18T19:13:54.062Z,100802.00
2019-03-18T19:16:25.781Z,100811.00
2019-03-18T19:18:58.123Z,100808.00
2019-03-18T19:21:29.919Z,100816.00
2019-03-18T19:24:01.613Z,100819.00
2019-03-18T19:26:33.240Z,100818.00
2019-03-18T19:29:04.877Z,100825.00
2019-03-18T19:31:37.704Z,100821.00
2019-03-18T19:34:09.335Z,100820.00
2019-03-18T19:36:40.839Z,100821.00
2019-03-18T19:39:12.262Z,100822.00
2019-03-18T19:41:43.784Z,100831.00
2019-03-18T19:44:16.267Z,100845.00
2019-03-18T19:46:51.848Z,100845.00
2019-03-18T19:49:23.651Z,100847.00
2019-03-18T19:51:55.186Z,100858.00
2019-03-18T19:54:26.762Z,100863.00
2019-03-18T19:56:58.368Z,100868.00
2019-03-18T19:59:29.845Z,100861.00
2019-03-18T20:02:01.426Z,100874.00
2019-03-18T20:04:34.801Z,100869.00
2019-03-18T20:07:06.350Z,100871.00
2019-03-18T20:09:37.803Z,100878.00
2019-03-18T20:12:09.520Z,100882.00
2019-03-18T20:14:41.120Z,100891.00
2019-03-18T20:17:12.688Z,100892.00
2019-03-18T20:19:44.266Z,100895.00
2019-03-18T20:22:15.875Z,100889.00
2019-03-18T20:24:47.427Z,100895.00
2019-03-18T20:27:19.016Z,100903.00
2019-03-18T20:29:50.529Z,100911.00
2019-03-18T20:32:22.096Z,100896.00
2019-03-18T20:34:53.670Z,100910.00
2019-03-18T20:37:25.282Z,100914.00
2019-03-18T20:39:56.826Z,100924.00
2019-03-18T20:42:28.410Z,100893.00
2019-03-18T20:44:59.952Z,100911.00
2019-03-18T20:47:31.778Z,100918.00
2019-03-18T20:50:03.370Z,100921.00
2019-03-18T20:52:35.107Z,100911.00
2019-03-18T20:55:07.773Z,100911.00
2019-03-18T20:57:39.308Z,100914.00
2019-03-18T21:00:12.609Z,100910.00
2019-03-18T21:02:44.473Z,100914.00
2019-03-18T21:05:15.987Z,100918.00
2019-03-18T21:07:47.558Z,100932.00
2019-03-18T21:10:19.173Z,100928.00
2019-03-18T21:12:50.731Z,100929.00
2019-03-18T21:15:22.231Z,100938.00
2019-03-18T21:17:53.773Z,100941.00
2019-03-18T21:20:25.242Z,100937.00
2019-03-18T21:22:57.966Z,100941.00
2019-03-18T21:25:29.423Z,100946.00
2019-03-18T21:28:00.919Z,100950.00
2019-03-18T21:30:32.451Z,100948.00
2019-03-18T21:33:04.132Z,100957.00
2019-03-18T21:35:35.619Z,100944.00
2019-03-18T21:38:07.221Z,100961.00
2019-03-18T21:40:38.705Z,100959.00
2019-03-18T21:43:10.260Z,100972.00
2019-03-18T21:45:41.690Z,100978.00
2019-03-18T21:48:15.206Z,100960.00
2019-03-18T21:50:49.184Z,100971.00
2019-03-18T21:53:20.754Z,100971.00
2019-03-18T21:55:52.285Z,100992.00
2019-03-18T21:58:23.755Z,100992.00
2019-03-18T22:00:55.164Z,101008.00
2019-03-18T22:03:26.813Z,101013.00
2019-03-18T22:06:00.757Z,101009.00
2019-03-18T22:08:33.520Z,101008.00
2019-03-18T22:11:05.166Z,101006.00
2019-03-18T22:13:36.669Z,101013.00
2019-03-18T22:16:08.168Z,101021.00
2019-03-18T22:18:39.775Z,101024.00
2019-03-18T22:21:11.280Z,101019.00
2019-03-18T22:23:42.900Z,101021.00
2019-03-18T22:26:14.464Z,101016.00
2019-03-18T22:28:46.462Z,101025.00
2019-03-18T22:31:17.911Z,101036.00
2019-03-18T22:33:49.746Z,101024.00
2019-03-18T22:36:21.283Z,101023.00
2019-03-18T22:38:52.784Z,101026.00
2019-03-18T22:41:25.210Z,101017.00
2019-03-18T22:43:56.777Z,101026.00
2019-03-18T22:46:28.289Z,101026.00
2019-03-18T22:48:59.857Z,101026.00
2019-03-18T22:51:31.476Z,101025.00
2019-03-18T22:54:03.026Z,101026.00
2019-03-18T22:56:34.596Z,101030.00
2019-03-18T22:59:06.207Z,101043.00
2019-03-18T23:01:37.712Z,101035.00
2019-03-18T23:04:09.291Z,101044.00
2019-03-18T23:06:40.952Z,101043.00
2019-03-18T23:09:12.548Z,101057.00
2019-03-18T23:11:46.364Z,101043.00
2019-03-18T23:14:17.825Z,101048.00
2019-03-18T23:16:49.266Z,101041.00
2019-03-18T23:19:21.120Z,101055.00
2019-03-18T23:21:53.645Z,101052.00
2019-03-18T23:24:26.398Z,101055.00
2019-03-18T23:26:57.792Z,101056.00
2019-03-18T23:29:29.218Z,101058.00
2019-03-18T23:32:00.935Z,101064.00
2019-03-18T23:34:32.372Z,101064.00
2019-03-18T23:37:03.880Z,101075.00
2019-03-18T23:39:35.276Z,101077.00
2019-03-18T23:42:06.700Z,101078.00
2019-03-18T23:44:38.154Z,101082.00
2019-03-18T23:47:09.586Z,101086.00
2019-03-18T23:49:41.032Z,101081.00
2019-03-18T23:52:12.410Z,101091.00
2019-03-18T23:54:43.838Z,101089.00
2019-03-18T23:57:15.224Z,101092.00
2019-03-18T23:59:46.634Z,101096.00
